createdAt,value
2022-09-21T00:01:57.823Z,2.17
2022-09-21T00:06:59.506Z,5.30
2022-09-21T00:12:02.433Z,2.15
2022-09-21T00:17:04.285Z,3.08
2022-09-21T00:22:07.167Z,2.83
2022-09-21T00:27:08.809Z,2.35
2022-09-21T00:32:10.470Z,2.83
2022-09-21T00:37:12.037Z,4.10
2022-09-21T00:42:21.677Z,3.30
2022-09-21T00:47:44.813Z,4.22
2022-09-21T00:52:53.091Z,2.28
2022-09-21T00:58:00.233Z,3.10
2022-09-21T01:03:03.740Z,5.03
2022-09-21T01:08:08.087Z,3.00
2022-09-21T01:13:41.866Z,2.20
2022-09-21T01:19:15.593Z,3.88
2022-09-21T01:24:22.918Z,2.17
2022-09-21T01:29:31.264Z,3.63
2022-09-21T01:34:48.531Z,4.10
2022-09-21T01:39:56.545Z,2.55
2022-09-21T01:45:03.409Z,2.90
2022-09-21T01:50:08.879Z,6.13
2022-09-21T01:55:28.487Z,2.40
2022-09-21T02:00:32.865Z,3.50
2022-09-21T02:05:34.471Z,3.88
2022-09-21T02:10:42.839Z,3.55
2022-09-21T02:16:07.206Z,4.32
2022-09-21T02:21:19.977Z,4.97
2022-09-21T02:26:32.007Z,5.13
2022-09-21T02:31:44.402Z,4.97
2022-09-21T02:37:01.282Z,5.65
2022-09-21T02:47:13.651Z,5.55
2022-09-21T02:52:17.727Z,6.75
2022-09-21T02:57:21.952Z,6.07
2022-09-21T03:02:23.547Z,5.35
2022-09-21T03:07:25.089Z,5.82
2022-09-21T03:12:26.862Z,5.07
2022-09-21T03:17:28.429Z,5.07
2022-09-21T03:22:29.971Z,5.70
2022-09-21T03:27:31.532Z,6.07
2022-09-21T03:32:33.108Z,5.90
2022-09-21T03:37:38.012Z,6.00
2022-09-21T03:42:44.675Z,6.07
2022-09-21T03:47:46.648Z,6.18
2022-09-21T03:52:48.193Z,8.30
2022-09-21T03:57:49.752Z,6.13
2022-09-21T04:02:51.346Z,7.20
2022-09-21T04:07:55.035Z,6.97
2022-09-21T04:13:03.467Z,7.60
2022-09-21T04:18:05.935Z,6.40
2022-09-21T04:23:10.086Z,7.05
2022-09-21T04:28:11.644Z,7.63
2022-09-21T04:33:14.255Z,9.70
2022-09-21T04:38:15.896Z,6.40
2022-09-21T04:43:22.027Z,7.80
2022-09-21T04:48:25.253Z,7.90
2022-09-21T04:53:26.904Z,8.82
2022-09-21T04:58:28.532Z,9.52
2022-09-21T05:03:31.068Z,9.85
2022-09-21T05:08:51.182Z,8.98
2022-09-21T05:13:52.869Z,9.85
2022-09-21T05:18:57.430Z,9.57
2022-09-21T05:23:59.260Z,10.57
2022-09-21T05:29:01.236Z,9.65
2022-09-21T05:34:36.811Z,10.82
2022-09-21T05:39:38.906Z,9.88
2022-09-21T05:44:40.668Z,7.80
2022-09-21T05:49:57.968Z,8.23
2022-09-21T05:55:07.916Z,8.40
2022-09-21T06:00:17.995Z,8.25
2022-09-21T06:05:20.025Z,9.38
2022-09-21T06:10:21.889Z,8.82
2022-09-21T06:15:23.415Z,8.25
2022-09-21T06:20:25.151Z,8.70
2022-09-21T06:25:26.968Z,8.57
2022-09-21T06:30:28.605Z,8.10
2022-09-21T06:35:31.968Z,8.18
2022-09-21T06:40:36.281Z,8.32
2022-09-21T06:45:37.906Z,8.00
2022-09-21T06:50:39.552Z,7.43
2022-09-21T06:55:41.150Z,9.40
2022-09-21T07:00:42.797Z,7.25
2022-09-21T07:05:47.471Z,7.95
2022-09-21T07:10:49.059Z,7.45
2022-09-21T07:15:53.347Z,7.03
2022-09-21T07:20:55.043Z,6.68
2022-09-21T07:26:02.396Z,6.10
2022-09-21T07:31:15.342Z,6.55
2022-09-21T07:36:17.987Z,6.63
2022-09-21T07:41:20.324Z,6.68
2022-09-21T07:46:22.148Z,6.13
2022-09-21T07:51:24.659Z,7.80
2022-09-21T07:56:26.807Z,6.32
2022-09-21T08:01:30.305Z,5.88
2022-09-21T08:06:33.282Z,6.68
2022-09-21T08:11:37.694Z,8.07
2022-09-21T08:16:40.137Z,7.55
2022-09-21T08:21:41.911Z,5.10
2022-09-21T08:26:44.115Z,4.72
2022-09-21T08:31:46.832Z,4.65
2022-09-21T08:36:53.009Z,7.13
2022-09-21T08:42:38.764Z,6.22
2022-09-21T08:47:49.278Z,5.38
2022-09-21T08:52:54.245Z,5.93
2022-09-21T08:57:56.089Z,3.65
2022-09-21T09:03:26.613Z,3.20
2022-09-21T09:08:57.821Z,3.58
2022-09-21T09:14:32.276Z,7.65
2022-09-21T09:20:01.778Z,4.20
2022-09-21T09:25:07.336Z,6.88
2022-09-21T09:30:25.642Z,4.28
2022-09-21T09:35:52.248Z,5.43
2022-09-21T09:46:35.537Z,3.28
2022-09-21T09:51:40.988Z,3.85
2022-09-21T09:56:44.037Z,3.40
2022-09-21T10:01:58.186Z,2.70
2022-09-21T10:07:00.679Z,3.72
2022-09-21T10:12:25.692Z,2.17
2022-09-21T10:17:28.172Z,2.05
2022-09-21T10:22:32.784Z,2.47
2022-09-21T10:27:36.277Z,3.70
2022-09-21T10:32:38.254Z,1.77
2022-09-21T10:37:41.741Z,1.23
2022-09-21T10:42:44.132Z,0.85
2022-09-21T10:47:52.679Z,1.60
2022-09-21T10:53:11.319Z,1.83
2022-09-21T10:58:14.623Z,1.35
2022-09-21T11:03:31.286Z,1.65
2022-09-21T11:08:41.053Z,1.05
2022-09-21T11:13:51.086Z,1.48
2022-09-21T11:19:00.091Z,1.23
2022-09-21T11:24:17.037Z,2.30
2022-09-21T11:29:28.932Z,1.55
2022-09-21T11:35:03.337Z,2.08
2022-09-21T11:40:32.791Z,1.50
2022-09-21T11:45:54.801Z,5.55
2022-09-21T11:51:18.622Z,2.28
2022-09-21T11:56:31.418Z,1.98
2022-09-21T12:02:00.268Z,1.15
2022-09-21T12:07:07.224Z,1.30
2022-09-21T12:12:22.325Z,1.48
2022-09-21T12:17:30.227Z,1.85
2022-09-21T12:22:36.014Z,1.58
2022-09-21T12:27:41.694Z,2.93
2022-09-21T12:33:18.886Z,1.42
2022-09-21T12:38:23.591Z,1.05
2022-09-21T12:43:35.640Z,1.02
2022-09-21T12:48:39.320Z,1.20
2022-09-21T12:53:50.866Z,1.67
2022-09-21T12:59:19.813Z,1.45
2022-09-21T13:04:31.097Z,2.97
2022-09-21T13:09:33.337Z,1.92
2022-09-21T13:14:37.541Z,1.83
2022-09-21T13:19:39.104Z,1.33
2022-09-21T13:24:42.606Z,1.35
2022-09-21T13:29:47.121Z,3.63
2022-09-21T13:34:50.979Z,1.90
2022-09-21T13:39:58.195Z,1.38
2022-09-21T13:45:24.640Z,1.77
2022-09-21T13:55:40.912Z,1.65
2022-09-21T14:00:56.936Z,1.65
2022-09-21T14:06:34.557Z,2.45
2022-09-21T14:11:37.347Z,1.60
2022-09-21T14:16:39.252Z,0.77
2022-09-21T14:22:03.437Z,0.50
2022-09-21T14:27:28.310Z,0.52
2022-09-21T14:32:35.462Z,0.88
2022-09-21T14:37:50.566Z,0.73
2022-09-21T14:42:57.318Z,1.00
2022-09-21T14:53:40.494Z,1.67
2022-09-21T14:58:48.375Z,1.20
2022-09-21T15:04:08.584Z,1.15
2022-09-21T15:09:59.360Z,1.88
2022-09-21T15:15:19.738Z,1.00
2022-09-21T15:20:24.214Z,1.48
2022-09-21T15:25:33.144Z,1.65
2022-09-21T15:30:45.957Z,2.80
2022-09-21T15:35:47.679Z,2.85
2022-09-21T15:40:50.865Z,4.75
2022-09-21T15:45:59.281Z,1.48
2022-09-21T15:51:30.824Z,2.28
2022-09-21T15:56:36.330Z,0.82
2022-09-21T16:01:47.639Z,2.20
2022-09-21T16:13:34.187Z,2.40
2022-09-21T16:18:45.463Z,3.08
2022-09-21T16:23:48.728Z,1.92
2022-09-21T16:28:58.207Z,2.15
2022-09-21T16:34:04.984Z,1.38
2022-09-21T16:44:20.965Z,3.47
2022-09-21T16:49:30.142Z,2.03
2022-09-21T16:54:32.760Z,1.98
2022-09-21T16:59:34.729Z,3.55
2022-09-21T17:04:36.622Z,3.53
2022-09-21T17:09:47.683Z,4.65
2022-09-21T17:14:51.617Z,4.43
2022-09-21T17:19:54.002Z,4.20
2022-09-21T17:24:55.591Z,4.30
2022-09-21T17:29:57.151Z,5.20
2022-09-21T17:35:13.329Z,4.72
2022-09-21T17:40:15.274Z,6.18
2022-09-21T17:45:37.680Z,5.32
2022-09-21T17:50:39.413Z,4.82
2022-09-21T17:55:57.012Z,5.07
2022-09-21T18:01:04.630Z,3.72
2022-09-21T18:06:07.382Z,4.22
2022-09-21T18:11:33.749Z,4.28
2022-09-21T18:16:41.588Z,4.20
2022-09-21T18:21:47.447Z,6.68
2022-09-21T18:26:49.889Z,3.47
2022-09-21T18:31:57.843Z,5.80
2022-09-21T18:37:24.169Z,4.30
2022-09-21T18:42:40.072Z,4.18
2022-09-21T18:48:13.368Z,4.10
2022-09-21T18:53:45.081Z,3.80
2022-09-21T18:58:46.900Z,4.75
2022-09-21T19:03:49.766Z,4.90
2022-09-21T19:09:11.496Z,5.78
2022-09-21T19:14:38.438Z,4.32
2022-09-21T19:20:01.180Z,4.05
2022-09-21T19:25:12.426Z,5.30
2022-09-21T19:30:16.886Z,5.13
2022-09-21T19:35:27.748Z,8.48
2022-09-21T19:40:32.341Z,6.20
2022-09-21T19:45:55.937Z,5.32
2022-09-21T19:50:58.990Z,4.53
2022-09-21T19:56:20.313Z,4.35
2022-09-21T20:01:22.594Z,4.18
2022-09-21T20:06:29.889Z,5.53
2022-09-21T20:11:41.102Z,5.72
2022-09-21T20:16:49.885Z,5.00
2022-09-21T20:21:58.790Z,7.68
2022-09-21T20:27:02.987Z,4.00
2022-09-21T20:32:04.959Z,5.45
2022-09-21T20:37:13.564Z,5.13
2022-09-21T20:42:23.427Z,5.15
2022-09-21T20:47:25.166Z,5.97
2022-09-21T20:52:26.834Z,4.93
2022-09-21T20:57:28.440Z,5.30
2022-09-21T21:02:30.104Z,5.68
2022-09-21T21:07:31.692Z,5.25
2022-09-21T21:12:33.241Z,5.57
2022-09-21T21:17:37.996Z,6.18
2022-09-21T21:22:39.558Z,6.72
2022-09-21T21:27:41.271Z,6.53
2022-09-21T21:32:42.959Z,6.72
2022-09-21T21:37:45.403Z,5.97
2022-09-21T21:42:47.146Z,5.80
2022-09-21T21:47:48.672Z,6.25
2022-09-21T21:52:50.285Z,6.57
2022-09-21T21:57:51.979Z,6.88
2022-09-21T22:02:56.077Z,5.70
2022-09-21T22:07:57.730Z,7.20
2022-09-21T22:12:59.601Z,7.03
2022-09-21T22:18:01.187Z,6.93
2022-09-21T22:23:02.897Z,7.20
2022-09-21T22:28:04.977Z,7.82
2022-09-21T22:33:06.609Z,7.53
2022-09-21T22:38:11.855Z,6.85
2022-09-21T22:43:13.407Z,6.78
2022-09-21T22:48:15.051Z,7.63
2022-09-21T22:53:16.960Z,7.85
2022-09-21T22:58:18.643Z,7.53
2022-09-21T23:03:20.219Z,7.72
2022-09-21T23:08:21.724Z,7.78
2022-09-21T23:13:23.646Z,7.68
2022-09-21T23:18:25.299Z,8.43
2022-09-21T23:23:26.883Z,7.88
2022-09-21T23:28:28.677Z,9.18
2022-09-21T23:34:02.868Z,8.68
2022-09-21T23:39:07.179Z,7.75
2022-09-21T23:44:09.266Z,9.25
2022-09-21T23:49:11.084Z,8.07
2022-09-21T23:54:15.116Z,8.63
2022-09-21T23:59:16.706Z,8.65
